createdAt,value
2019-01-19T09:06:59.326Z,1.24
2019-01-19T09:07:59.317Z,1.55
2019-01-19T09:08:59.281Z,1.73
2019-01-19T09:09:59.273Z,2.06
2019-01-19T09:10:59.262Z,2.41
2019-01-19T09:11:59.250Z,2.89
2019-01-19T09:12:59.277Z,3.24
2019-01-19T09:13:59.229Z,3.47
2019-01-19T09:14:59.216Z,3.68
2019-01-19T09:15:59.206Z,4.00
2019-01-19T09:16:59.193Z,4.14
2019-01-19T09:17:59.181Z,4.10
2019-01-19T09:18:59.197Z,4.39
2019-01-19T09:19:59.161Z,4.29
2019-01-19T09:20:59.148Z,4.25
2019-01-19T09:21:59.139Z,4.15
2019-01-19T09:22:59.130Z,3.88
2019-01-19T09:23:59.132Z,3.64
2019-01-19T09:24:59.108Z,3.49
2019-01-19T09:25:59.092Z,3.34
2019-01-19T09:26:59.079Z,3.33
2019-01-19T09:27:59.069Z,3.31
2019-01-19T09:28:59.077Z,3.28
2019-01-19T09:29:59.048Z,3.25
2019-01-19T09:30:59.037Z,3.36
2019-01-19T09:31:59.024Z,3.54
2019-01-19T09:32:59.014Z,3.53
2019-01-19T09:33:59.019Z,3.68
2019-01-19T09:34:58.995Z,3.85
2019-01-19T09:35:58.978Z,4.15
2019-01-19T09:36:58.966Z,4.32
2019-01-19T09:38:05.987Z,4.52
2019-01-19T09:38:58.963Z,4.70
2019-01-19T09:39:58.933Z,4.70
2019-01-19T09:40:58.924Z,4.67
2019-01-19T09:41:58.910Z,4.88
2019-01-19T09:42:58.902Z,5.05
2019-01-19T09:43:58.927Z,5.14
2019-01-19T09:44:58.877Z,4.99
2019-01-19T09:45:58.865Z,5.09
2019-01-19T09:46:58.853Z,5.07
2019-01-19T09:47:58.842Z,5.12
2019-01-19T09:48:58.836Z,5.10
2019-01-19T09:49:58.840Z,5.37
2019-01-19T09:50:58.818Z,5.55
2019-01-19T09:51:58.794Z,5.73
2019-01-19T09:52:58.783Z,5.81
2019-01-19T09:53:58.772Z,6.00
2019-01-19T09:54:58.782Z,6.29
2019-01-19T09:55:58.748Z,6.53
2019-01-19T09:56:58.738Z,6.65
2019-01-19T09:57:58.727Z,6.95
2019-01-19T09:58:58.716Z,7.22
2019-01-19T09:59:58.723Z,7.15
2019-01-19T10:00:58.690Z,7.04
2019-01-19T10:01:58.687Z,7.04
2019-01-19T10:02:58.668Z,7.07
2019-01-19T10:03:58.656Z,7.09
2019-01-19T10:04:58.671Z,7.31
2019-01-19T10:05:58.655Z,7.19
2019-01-19T10:06:58.623Z,6.97
2019-01-19T10:07:58.610Z,6.89
2019-01-19T10:08:58.600Z,7.07
2019-01-19T10:09:58.607Z,7.15
2019-01-19T10:10:58.580Z,7.29
2019-01-19T10:11:58.563Z,7.20
2019-01-19T10:12:58.552Z,7.44
2019-01-19T10:13:58.542Z,7.45
2019-01-19T10:14:58.553Z,7.17
2019-01-19T10:15:58.517Z,6.62
2019-01-19T10:16:58.508Z,6.51
2019-01-19T10:17:58.494Z,6.36
2019-01-19T10:18:58.481Z,6.66
2019-01-19T10:19:58.475Z,6.77
2019-01-19T10:20:58.478Z,6.98
2019-01-19T10:21:58.449Z,7.34
2019-01-19T10:22:58.437Z,7.74
2019-01-19T10:23:58.426Z,7.79
2019-01-19T10:24:58.418Z,7.85
2019-01-19T10:25:58.420Z,7.71
2019-01-19T10:26:58.395Z,7.87
2019-01-19T10:27:58.381Z,7.87
2019-01-19T10:28:58.368Z,7.45
2019-01-19T10:29:58.357Z,7.13
2019-01-19T10:30:58.370Z,7.16
2019-01-19T10:31:58.333Z,7.38
2019-01-19T10:32:58.321Z,7.41
2019-01-19T10:33:58.309Z,7.41
2019-01-19T10:34:58.305Z,7.40
2019-01-19T10:35:58.309Z,7.58
2019-01-19T10:36:58.300Z,7.50
2019-01-19T10:37:58.262Z,7.44
2019-01-19T10:38:58.254Z,7.75
2019-01-19T10:39:58.242Z,7.92
2019-01-19T10:40:58.256Z,8.04
2019-01-19T10:41:58.221Z,8.11
2019-01-19T10:42:58.209Z,8.42
2019-01-19T10:43:59.089Z,8.48
2019-01-19T10:44:58.198Z,8.44
2019-01-19T10:45:58.172Z,8.57
2019-01-19T10:46:58.180Z,8.81
2019-01-19T10:47:58.147Z,9.30
2019-01-19T10:48:58.135Z,9.56
2019-01-19T10:49:58.125Z,9.94
2019-01-19T10:50:58.115Z,10.32
2019-01-19T10:51:59.524Z,10.37
2019-01-19T10:52:58.089Z,10.32
2019-01-19T10:53:58.077Z,10.71
2019-01-19T10:54:58.067Z,11.01
2019-01-19T10:55:58.055Z,11.46
2019-01-19T10:56:58.067Z,11.77
2019-01-19T10:57:58.033Z,11.82
2019-01-19T10:58:58.024Z,12.04
2019-01-19T10:59:58.008Z,12.21
2019-01-19T11:00:58.004Z,12.49
2019-01-19T11:01:58.008Z,12.89
2019-01-19T11:02:57.982Z,12.44
2019-01-19T11:03:57.963Z,12.84
2019-01-19T11:04:57.952Z,13.33
2019-01-19T11:05:57.941Z,12.62
2019-01-19T11:06:57.950Z,12.82
2019-01-19T11:08:03.651Z,13.06
2019-01-19T11:08:58.904Z,12.81
2019-01-19T11:09:57.894Z,12.74
2019-01-19T11:10:57.883Z,13.06
2019-01-19T11:11:57.889Z,13.14
2019-01-19T11:12:57.859Z,13.06
2019-01-19T11:13:57.850Z,13.07
2019-01-19T11:14:59.343Z,13.17
2019-01-19T11:15:57.823Z,13.02
2019-01-19T11:16:57.831Z,13.20
2019-01-19T11:17:57.801Z,13.49
2019-01-19T11:18:57.789Z,13.61
2019-01-19T11:19:57.777Z,13.77
2019-01-19T11:20:57.769Z,13.70
2019-01-19T11:21:57.771Z,13.55
2019-01-19T11:22:57.740Z,13.52
2019-01-19T11:23:57.733Z,13.94
2019-01-19T11:24:57.719Z,14.35
2019-01-19T11:25:57.706Z,14.34
2019-01-19T11:26:57.718Z,13.96
2019-01-19T11:27:57.683Z,13.02
2019-01-19T11:28:57.673Z,13.09
2019-01-19T11:29:57.666Z,13.49
2019-01-19T11:30:57.649Z,13.83
2019-01-19T11:31:57.656Z,13.91
2019-01-19T11:32:57.627Z,12.71
2019-01-19T11:33:57.615Z,12.24
2019-01-19T11:34:57.603Z,11.39
2019-01-19T11:35:57.591Z,10.96
2019-01-19T11:36:57.602Z,10.65
2019-01-19T11:37:57.571Z,10.78
2019-01-19T11:38:57.569Z,10.70
2019-01-19T11:39:57.551Z,10.71
2019-01-19T11:40:57.534Z,10.63
2019-01-19T11:41:57.541Z,10.30
2019-01-19T11:42:57.510Z,10.37
2019-01-19T11:43:57.500Z,10.65
2019-01-19T11:44:57.486Z,10.71
2019-01-19T11:45:57.475Z,10.24
2019-01-19T11:46:57.484Z,10.12
2019-01-19T11:47:57.462Z,10.40
2019-01-19T11:48:57.444Z,10.55
2019-01-19T11:49:57.438Z,10.42
2019-01-19T11:50:57.418Z,10.06
2019-01-19T11:51:57.426Z,10.06
2019-01-19T11:52:57.394Z,9.48
2019-01-19T11:53:57.384Z,8.97
2019-01-19T11:54:57.375Z,8.53
2019-01-19T11:55:57.363Z,8.55
2019-01-19T11:56:57.391Z,8.71
2019-01-19T11:57:57.337Z,8.96
2019-01-19T11:58:57.327Z,9.06
2019-01-19T11:59:57.321Z,8.96
2019-01-19T12:00:57.304Z,8.97
2019-01-19T12:01:57.297Z,9.09
2019-01-19T12:02:57.299Z,9.04
2019-01-19T12:03:57.271Z,9.15
2019-01-19T12:04:57.259Z,9.25
2019-01-19T12:05:57.249Z,9.52
2019-01-19T12:06:57.235Z,9.82
2019-01-19T12:07:57.243Z,10.01
2019-01-19T12:08:57.213Z,10.25
2019-01-19T12:09:57.201Z,10.24
2019-01-19T12:10:57.194Z,9.88
2019-01-19T12:11:57.179Z,9.86
2019-01-19T12:12:57.573Z,9.89
2019-01-19T12:13:57.156Z,9.66
2019-01-19T12:14:57.142Z,9.58
2019-01-19T12:15:57.131Z,9.70
2019-01-19T12:16:57.123Z,9.05
2019-01-19T12:17:57.125Z,9.01
2019-01-19T12:18:57.097Z,9.23
2019-01-19T12:19:57.086Z,9.42
2019-01-19T12:20:57.078Z,9.15
2019-01-19T12:21:57.067Z,9.39
2019-01-19T12:22:57.070Z,9.53
2019-01-19T12:23:57.038Z,9.52
2019-01-19T12:24:57.027Z,9.30
2019-01-19T12:25:57.015Z,9.04
2019-01-19T12:26:57.003Z,8.81
2019-01-19T12:27:57.010Z,8.83
2019-01-19T12:28:56.980Z,8.76
2019-01-19T12:29:56.969Z,8.72
2019-01-19T12:30:56.956Z,8.73
2019-01-19T12:31:56.945Z,8.94
2019-01-19T12:32:56.958Z,9.05
2019-01-19T12:33:56.920Z,9.06
2019-01-19T12:34:56.909Z,8.87
2019-01-19T12:35:56.897Z,8.78
2019-01-19T12:36:56.888Z,8.55
2019-01-19T12:37:56.874Z,8.45
2019-01-19T12:38:56.879Z,8.20
2019-01-19T12:39:56.852Z,8.10
2019-01-19T12:40:56.838Z,8.22
2019-01-19T12:41:56.829Z,8.21
2019-01-19T12:42:56.816Z,8.20
2019-01-19T12:43:56.822Z,8.08
2019-01-19T12:44:56.793Z,8.03
2019-01-19T12:45:56.780Z,7.90
2019-01-19T12:46:57.031Z,7.69
2019-01-19T12:47:56.759Z,7.90
2019-01-19T12:48:56.768Z,7.84
2019-01-19T12:49:56.737Z,7.82
2019-01-19T12:50:56.723Z,7.99
2019-01-19T12:51:57.895Z,7.79
2019-01-19T12:52:56.702Z,7.77
2019-01-19T12:53:56.708Z,8.00
2019-01-19T12:54:56.684Z,7.90
2019-01-19T12:55:56.669Z,7.87
2019-01-19T12:56:56.654Z,8.02
2019-01-19T12:57:56.644Z,7.56
2019-01-19T12:58:56.653Z,7.45
2019-01-19T12:59:56.622Z,7.13
2019-01-19T13:00:56.614Z,7.23
2019-01-19T13:01:56.600Z,6.91
2019-01-19T13:02:56.588Z,6.94
2019-01-19T13:03:56.595Z,6.72
2019-01-19T13:04:56.566Z,6.62
2019-01-19T13:05:56.553Z,6.69
2019-01-19T13:06:56.541Z,6.80
2019-01-19T13:07:56.532Z,6.68
2019-01-19T13:08:56.545Z,6.61
2019-01-19T13:09:56.507Z,6.61
2019-01-19T13:10:56.497Z,6.58
2019-01-19T13:11:56.485Z,6.65
2019-01-19T13:12:56.472Z,6.50
2019-01-19T13:14:03.082Z,6.29
2019-01-19T13:14:57.468Z,6.07
2019-01-19T13:15:56.441Z,6.11
2019-01-19T13:16:56.426Z,6.09
2019-01-19T13:17:56.416Z,6.19
2019-01-19T13:18:56.403Z,6.21
2019-01-19T13:19:56.410Z,6.14
2019-01-19T13:20:56.379Z,6.01
2019-01-19T13:21:56.369Z,6.16
2019-01-19T13:22:56.357Z,6.10
2019-01-19T13:23:56.344Z,6.07
2019-01-19T13:24:56.351Z,6.07
2019-01-19T13:25:56.322Z,5.98
2019-01-19T13:26:56.310Z,6.07
2019-01-19T13:27:56.298Z,6.06
2019-01-19T13:28:56.287Z,6.10
2019-01-19T13:29:56.294Z,6.25
2019-01-19T13:30:56.263Z,6.26
2019-01-19T13:31:56.262Z,6.21
2019-01-19T13:32:56.241Z,6.25
2019-01-19T13:33:56.293Z,6.16
2019-01-19T13:34:56.253Z,5.93
2019-01-19T13:35:56.206Z,5.70
2019-01-19T13:36:56.193Z,5.57
2019-01-19T13:37:56.209Z,5.63
2019-01-19T13:38:56.171Z,5.63
2019-01-19T13:39:56.170Z,5.67
2019-01-19T13:40:56.167Z,5.74
2019-01-19T13:41:56.137Z,5.88
2019-01-19T13:42:56.128Z,5.98
2019-01-19T13:43:56.113Z,6.00
2019-01-19T13:44:56.105Z,6.03
2019-01-19T13:45:56.111Z,6.13
2019-01-19T13:46:56.085Z,6.09
2019-01-19T13:47:56.066Z,6.06
2019-01-19T13:48:56.057Z,5.93
2019-01-19T13:49:56.047Z,6.04
2019-01-19T13:50:56.052Z,6.21
2019-01-19T13:51:56.023Z,6.28
2019-01-19T13:52:56.042Z,6.38
2019-01-19T13:53:56.002Z,6.43
2019-01-19T13:54:55.989Z,6.47
2019-01-19T13:55:55.999Z,6.69
2019-01-19T13:56:55.967Z,6.46
2019-01-19T13:57:55.954Z,6.32
2019-01-19T13:58:55.944Z,6.14
2019-01-19T13:59:55.931Z,6.00
2019-01-19T14:00:55.940Z,5.93
2019-01-19T14:01:55.908Z,5.75
2019-01-19T14:02:55.898Z,5.75
2019-01-19T14:03:55.888Z,5.68
2019-01-19T14:04:55.876Z,5.63
2019-01-19T14:05:55.886Z,5.63
2019-01-19T14:06:55.855Z,5.59
2019-01-19T14:07:55.841Z,5.66
2019-01-19T14:08:55.830Z,5.48
2019-01-19T14:09:55.823Z,5.49
2019-01-19T14:10:55.809Z,5.59
2019-01-19T14:11:55.815Z,5.50
2019-01-19T14:12:55.785Z,5.45
2019-01-19T14:13:55.772Z,5.20
2019-01-19T14:14:55.762Z,5.17
2019-01-19T14:15:55.773Z,5.13
2019-01-19T14:16:55.740Z,5.17
2019-01-19T14:17:55.726Z,5.22
2019-01-19T14:18:55.715Z,5.19
2019-01-19T14:19:55.705Z,5.01
2019-01-19T14:20:55.700Z,4.95
2019-01-19T14:21:55.735Z,4.77
2019-01-19T14:22:55.671Z,4.64
2019-01-19T14:23:55.662Z,4.47
2019-01-19T14:24:55.648Z,4.58
2019-01-19T14:25:55.636Z,4.76
2019-01-19T14:26:55.651Z,4.83
2019-01-19T14:27:55.612Z,4.72
2019-01-19T14:28:55.603Z,4.72
2019-01-19T14:29:55.592Z,4.65
2019-01-19T14:30:55.579Z,4.72
2019-01-19T14:31:55.588Z,4.80
2019-01-19T14:32:55.554Z,4.89
2019-01-19T14:33:55.545Z,4.95
2019-01-19T14:34:55.535Z,4.99
2019-01-19T14:35:55.522Z,5.09
2019-01-19T14:36:55.528Z,5.04
2019-01-19T14:37:55.499Z,4.95
2019-01-19T14:38:56.926Z,4.70
2019-01-19T14:39:55.478Z,4.96
2019-01-19T14:40:55.466Z,5.07
2019-01-19T14:41:55.473Z,5.02
2019-01-19T14:42:55.441Z,4.91
2019-01-19T14:43:55.429Z,4.94
2019-01-19T14:44:55.422Z,4.96
2019-01-19T14:45:55.413Z,5.07
2019-01-19T14:46:55.414Z,5.25
2019-01-19T14:47:55.385Z,5.22
2019-01-19T14:48:55.374Z,5.45
2019-01-19T14:49:55.362Z,5.45
2019-01-19T14:50:55.356Z,5.56
2019-01-19T14:51:55.360Z,5.64
2019-01-19T14:52:55.329Z,5.66
2019-01-19T14:53:55.317Z,5.71
2019-01-19T14:54:55.305Z,5.71
2019-01-19T14:55:55.294Z,5.75
2019-01-19T14:56:55.283Z,5.70
2019-01-19T14:57:55.292Z,5.53
2019-01-19T14:58:55.260Z,5.66
2019-01-19T14:59:55.249Z,5.49
2019-01-19T15:00:55.237Z,5.37
2019-01-19T15:01:55.226Z,5.31
2019-01-19T15:02:55.237Z,5.19
2019-01-19T15:03:55.203Z,4.92
2019-01-19T15:04:55.192Z,4.89
2019-01-19T15:05:55.180Z,4.70
2019-01-19T15:06:55.169Z,4.58
2019-01-19T15:07:55.177Z,4.57
2019-01-19T15:08:55.147Z,4.44
2019-01-19T15:09:55.138Z,4.39
2019-01-19T15:10:55.124Z,4.24
2019-01-19T15:11:55.117Z,4.29
2019-01-19T15:12:55.141Z,4.22
2019-01-19T15:13:55.089Z,4.18
2019-01-19T15:14:55.080Z,4.01
2019-01-19T15:15:55.065Z,3.94
2019-01-19T15:16:55.055Z,3.83
2019-01-19T15:17:55.042Z,3.78
2019-01-19T15:18:55.049Z,3.71
2019-01-19T15:19:55.025Z,3.68
2019-01-19T15:20:55.008Z,3.70
2019-01-19T15:21:54.996Z,3.65
2019-01-19T15:22:54.985Z,3.50
2019-01-19T15:23:54.996Z,3.60
2019-01-19T15:24:54.961Z,3.47
2019-01-19T15:25:54.949Z,3.47
2019-01-19T15:26:54.956Z,3.49
2019-01-19T15:27:54.926Z,3.40
2019-01-19T15:28:54.939Z,3.27
2019-01-19T15:29:54.904Z,3.39
2019-01-19T15:30:54.890Z,3.27
2019-01-19T15:31:54.882Z,3.28
2019-01-19T15:32:54.871Z,3.18
2019-01-19T15:33:54.874Z,3.15
2019-01-19T15:34:54.844Z,3.02
2019-01-19T15:35:54.831Z,2.92
2019-01-19T15:36:54.830Z,2.95
2019-01-19T15:37:54.808Z,2.89
2019-01-19T15:39:01.846Z,2.85
2019-01-19T15:39:54.786Z,2.77
2019-01-19T15:40:54.775Z,2.82
2019-01-19T15:41:54.764Z,2.82
2019-01-19T15:42:54.753Z,2.76
2019-01-19T15:43:54.760Z,2.74
2019-01-19T15:44:54.733Z,2.63
2019-01-19T15:45:54.720Z,2.52
2019-01-19T15:46:54.709Z,2.53
2019-01-19T15:47:54.697Z,2.48
2019-01-19T15:48:54.711Z,2.35
2019-01-19T15:49:54.675Z,2.51
2019-01-19T15:50:54.665Z,2.40
2019-01-19T15:51:54.651Z,2.38
2019-01-19T15:52:54.641Z,2.27
2019-01-19T15:53:54.630Z,2.23
2019-01-19T15:54:54.639Z,2.35
2019-01-19T15:55:54.608Z,2.30
2019-01-19T15:56:54.596Z,2.16
2019-01-19T15:57:54.611Z,2.22
2019-01-19T15:58:54.577Z,2.04
2019-01-19T15:59:54.588Z,2.09
2019-01-19T16:00:54.552Z,1.97
2019-01-19T16:01:54.546Z,2.09
2019-01-19T16:02:54.530Z,2.10
2019-01-19T16:03:54.519Z,1.94
2019-01-19T16:04:54.525Z,1.76
2019-01-19T16:05:54.497Z,1.87
2019-01-19T16:06:54.486Z,1.87
2019-01-19T16:07:54.484Z,1.80
2019-01-19T16:08:54.463Z,1.83
2019-01-19T16:09:54.472Z,1.76
2019-01-19T16:10:54.441Z,1.61
2019-01-19T16:11:54.429Z,1.58
2019-01-19T16:12:54.420Z,1.50
2019-01-19T16:13:54.411Z,1.40
2019-01-19T16:14:54.422Z,1.50
2019-01-19T16:15:54.387Z,1.43
2019-01-19T16:16:54.376Z,1.29
2019-01-19T16:17:54.364Z,1.33
2019-01-19T16:18:54.350Z,1.21
2019-01-19T16:19:54.342Z,1.18
2019-01-19T16:20:54.347Z,1.16
2019-01-19T16:21:54.317Z,1.19
2019-01-19T16:22:54.306Z,1.07
2019-01-19T16:23:54.296Z,1.07
2019-01-19T16:24:54.284Z,1.01
2019-01-19T16:25:54.290Z,1.07
2019-01-19T16:26:54.262Z,1.04
2019-01-19T16:27:54.248Z,0.94
2019-01-19T16:28:54.237Z,0.86
2019-01-19T16:29:54.226Z,0.86
2019-01-19T16:30:54.236Z,0.83
2019-01-19T16:31:54.207Z,0.85
2019-01-19T16:32:54.192Z,0.85
2019-01-19T16:33:54.180Z,0.92
2019-01-19T16:34:54.176Z,0.89
2019-01-19T16:35:54.177Z,0.83
2019-01-19T16:36:54.146Z,0.80
2019-01-19T16:37:54.134Z,0.78
2019-01-19T16:38:54.126Z,0.72
2019-01-19T16:39:54.113Z,0.65
2019-01-19T16:40:54.125Z,0.65
2019-01-19T16:41:54.089Z,0.68
2019-01-19T16:42:54.080Z,0.65
2019-01-19T16:43:54.070Z,0.65
2019-01-19T16:44:54.062Z,0.65
2019-01-19T16:45:54.063Z,0.64
2019-01-19T16:46:54.033Z,0.52
2019-01-19T16:47:54.022Z,0.61
2019-01-19T16:48:54.012Z,0.64
2019-01-19T16:49:53.999Z,0.65
2019-01-19T16:50:54.006Z,0.57
2019-01-19T16:51:53.978Z,0.49
2019-01-19T16:52:53.964Z,0.46
2019-01-19T16:53:53.953Z,0.46
2019-01-19T16:54:53.943Z,0.48
2019-01-19T16:55:53.970Z,0.42
2019-01-19T16:56:53.919Z,0.33
2019-01-19T16:57:53.907Z,0.38
2019-01-19T16:58:53.897Z,0.33
2019-01-19T16:59:53.885Z,0.28
2019-01-19T17:00:53.874Z,0.28
2019-01-19T17:01:53.881Z,0.28
2019-01-19T17:02:53.850Z,0.27
2019-01-19T17:03:53.838Z,0.30
2019-01-19T17:04:53.830Z,0.15
2019-01-19T17:05:53.817Z,0.21
2019-01-19T17:06:53.823Z,0.28
2019-01-19T17:07:53.801Z,0.27
2019-01-19T17:08:53.781Z,0.31
2019-01-19T17:09:53.773Z,0.18
2019-01-19T17:10:53.760Z,0.21
2019-01-19T17:11:53.767Z,0.16
2019-01-19T17:12:53.736Z,0.21
2019-01-19T17:13:53.725Z,0.31
2019-01-19T17:14:53.714Z,0.30
2019-01-19T17:15:53.705Z,0.31
2019-01-19T17:16:53.710Z,0.09
